Time;durP1;ratioP1;P1;durP2;ratioP2;P2;SDS_P1;SDS_P2;PMS_P1;PMS_P2;Temp;Humidity;BMP_temperature;BMP_pressure;BME280_temperature;BME280_humidity;BME280_pressure;Samples;Min_cycle;Max_cycle;Signal;HPM_P1;HPM_P2
2022/05/01 00:01:01;;;;;;;14.25;9.75;;;6.70;99.90;;;;;;5138219;27;20226;-71
2022/05/01 00:03:36;;;;;;;14.07;10.30;;;6.70;99.90;;;;;;5125206;27;20092;-72
2022/05/01 00:09:06;;;;;;;13.48;9.52;;;6.90;99.90;;;;;;5110865;28;19911;-72
2022/05/01 00:11:42;;;;;;;13.50;11.00;;;6.80;99.90;;;;;;5118421;27;20035;-71
2022/05/01 00:14:09;;;;;;;13.68;10.25;;;7.50;99.90;;;;;;5096199;27;20066;-71
2022/05/01 00:16:34;;;;;;;12.15;10.02;;;6.80;99.90;;;;;;5127386;27;20030;-72
2022/05/01 00:19:01;;;;;;;15.02;11.38;;;6.70;99.90;;;;;;5103832;27;20055;-73
2022/05/01 00:21:34;;;;;;;16.73;11.55;;;6.70;99.90;;;;;;5117671;27;20031;-71
2022/05/01 00:24:03;;;;;;;14.82;10.55;;;6.70;99.90;;;;;;5123001;27;20027;-70
2022/05/01 00:26:29;;;;;;;14.90;11.05;;;6.60;99.90;;;;;;5100117;27;20074;-71
2022/05/01 00:28:55;;;;;;;17.30;11.45;;;6.70;99.90;;;;;;5110114;27;20441;-71
2022/05/01 00:31:21;;;;;;;18.48;11.30;;;6.50;99.90;;;;;;5143115;27;20046;-71
2022/05/01 00:36:30;;;;;;;11.18;9.00;;;6.10;99.90;;;;;;5121946;27;20090;-71
2022/05/01 00:39:04;;;;;;;13.73;9.30;;;6.10;99.90;;;;;;5119307;27;20038;-71
2022/05/01 00:41:36;;;;;;;14.05;11.18;;;6.00;99.90;;;;;;5122393;27;20027;-72
2022/05/01 00:44:16;;;;;;;15.32;10.23;;;6.00;99.90;;;;;;5122574;27;20221;-71
2022/05/01 00:46:44;;;;;;;13.20;9.40;;;6.00;99.90;;;;;;5115184;27;20027;-70
2022/05/01 00:49:18;;;;;;;14.55;11.57;;;6.10;99.90;;;;;;5141421;27;20079;-70
2022/05/01 00:51:59;;;;;;;15.20;11.30;;;5.90;99.90;;;;;;5116123;27;20034;-70
2022/05/01 00:54:29;;;;;;;12.70;10.77;;;5.90;99.90;;;;;;5116309;27;20062;-71
2022/05/01 00:56:59;;;;;;;14.80;12.38;;;5.90;99.90;;;;;;5127879;27;20027;-71
2022/05/01 00:59:26;;;;;;;14.45;11.82;;;6.00;99.90;;;;;;5124942;27;20038;-70
2022/05/01 01:01:52;;;;;;;16.52;11.75;;;6.00;99.90;;;;;;5141965;27;20075;-70
2022/05/01 01:04:18;;;;;;;18.33;13.18;;;6.10;99.90;;;;;;5123883;27;20256;-70
2022/05/01 01:06:44;;;;;;;15.75;12.63;;;6.10;99.90;;;;;;5118473;27;20031;-70
2022/05/01 01:09:11;;;;;;;16.52;13.00;;;6.30;99.90;;;;;;5108437;27;20043;-70
2022/05/01 01:11:39;;;;;;;14.80;11.70;;;6.10;99.90;;;;;;5110224;27;20098;-69
2022/05/01 01:14:05;;;;;;;15.88;11.73;;;6.20;99.90;;;;;;5141216;27;20046;-71
2022/05/01 01:16:32;;;;;;;15.57;11.13;;;6.10;99.90;;;;;;5138528;27;20375;-71
2022/05/01 01:18:58;;;;;;;14.05;11.23;;;6.60;99.90;;;;;;5134005;27;20033;-70
2022/05/01 01:21:24;;;;;;;16.13;11.43;;;6.10;99.90;;;;;;5139977;27;20039;-71
2022/05/01 01:23:52;;;;;;;14.27;11.73;;;6.20;99.90;;;;;;5121294;27;20213;-70
2022/05/01 01:26:19;;;;;;;18.23;13.13;;;6.20;99.90;;;;;;5121215;28;20027;-70
2022/05/01 01:28:46;;;;;;;16.63;12.48;;;6.20;99.90;;;;;;5106665;28;20027;-70
2022/05/01 01:34:03;;;;;;;16.05;12.25;;;6.10;99.90;;;;;;5130280;27;20038;-72
2022/05/01 01:36:32;;;;;;;17.25;12.05;;;6.00;99.90;;;;;;5129161;27;20084;-72
2022/05/01 01:38:57;;;;;;;13.85;12.07;;;6.10;99.90;;;;;;5114257;27;20388;-71
2022/05/01 01:41:31;;;;;;;17.75;12.63;;;6.10;99.90;;;;;;5097314;27;20031;-72
2022/05/01 01:43:58;;;;;;;15.65;11.75;;;6.00;99.90;;;;;;5124947;27;20027;-71
2022/05/01 01:46:24;;;;;;;16.92;13.90;;;6.00;99.90;;;;;;5110785;27;20027;-71
2022/05/01 01:48:51;;;;;;;16.90;12.77;;;5.80;99.90;;;;;;5116843;27;20031;-71
2022/05/01 01:51:18;;;;;;;13.07;11.30;;;5.80;99.90;;;;;;5123743;27;20213;-71
2022/05/01 01:53:44;;;;;;;12.45;9.82;;;5.60;99.90;;;;;;5109334;27;20027;-71
2022/05/01 01:56:11;;;;;;;11.57;9.40;;;5.50;99.90;;;;;;5116846;27;20186;-71
2022/05/01 01:58:39;;;;;;;34.50;10.07;;;5.20;99.90;;;;;;5111727;27;20050;-70
2022/05/01 02:01:06;;;;;;;119.90;12.50;;;5.10;99.90;;;;;;5133159;27;20039;-71
2022/05/01 02:03:33;;;;;;;23.15;10.00;;;4.90;99.90;;;;;;5122277;27;20023;-71
2022/05/01 02:05:59;;;;;;;15.68;10.25;;;4.90;99.90;;;;;;5110431;27;20034;-71
2022/05/01 02:08:26;;;;;;;81.50;10.13;;;5.70;99.90;;;;;;5110590;27;20054;-71
2022/05/01 02:10:51;;;;;;;28.63;8.40;;;4.70;99.90;;;;;;5110510;27;20049;-71
2022/05/01 02:13:17;;;;;;;12.70;9.05;;;4.70;99.90;;;;;;5124684;27;20063;-71
2022/05/01 02:15:44;;;;;;;17.48;9.15;;;4.90;99.90;;;;;;5122363;27;20032;-71
2022/05/01 02:18:10;;;;;;;10.85;8.82;;;4.70;99.90;;;;;;5121661;27;20047;-71
2022/05/01 02:23:21;;;;;;;16.30;8.88;;;5.40;99.90;;;;;;5123110;28;20081;-71
2022/05/01 02:25:48;;;;;;;9.57;7.90;;;4.70;99.90;;;;;;5147537;27;20318;-71
2022/05/01 02:28:14;;;;;;;10.15;8.40;;;5.00;99.90;;;;;;5126446;27;20094;-71
2022/05/01 02:30:40;;;;;;;12.48;8.85;;;4.80;99.90;;;;;;5124310;27;20043;-71
2022/05/01 02:33:07;;;;;;;8.93;8.00;;;5.10;99.90;;;;;;5143988;27;20023;-70
2022/05/01 02:35:37;;;;;;;13.02;9.82;;;4.90;99.90;;;;;;5115592;27;20058;-70
2022/05/01 02:38:03;;;;;;;9.63;8.48;;;4.90;99.90;;;;;;5111779;27;20028;-71
2022/05/01 02:40:30;;;;;;;10.13;8.35;;;4.80;99.90;;;;;;5108045;27;20048;-70
2022/05/01 02:43:00;;;;;;;17.30;8.77;;;4.80;99.90;;;;;;5134080;27;20335;-70
2022/05/01 02:45:29;;;;;;;182.55;19.00;;;4.70;99.90;;;;;;5113076;28;20032;-71
2022/05/01 02:47:55;;;;;;;24.63;12.70;;;4.80;99.90;;;;;;5136044;27;20080;-71
2022/05/01 02:50:22;;;;;;;42.08;13.38;;;4.80;99.90;;;;;;5122913;27;20035;-71
2022/05/01 02:52:51;;;;;;;13.68;10.48;;;5.00;99.90;;;;;;5121571;27;20039;-70
2022/05/01 02:55:17;;;;;;;17.80;13.13;;;5.40;99.90;;;;;;5125965;27;20045;-71
2022/05/01 02:57:43;;;;;;;14.57;11.48;;;5.00;99.90;;;;;;5121445;27;20032;-70
2022/05/01 03:00:16;;;;;;;14.57;11.05;;;5.00;99.90;;;;;;5102003;28;20043;-69
2022/05/01 03:02:46;;;;;;;13.38;9.82;;;5.00;99.90;;;;;;5116038;27;20354;-72
2022/05/01 03:05:12;;;;;;;13.93;10.73;;;4.90;99.90;;;;;;5122765;27;20403;-70
2022/05/01 03:07:38;;;;;;;13.35;10.40;;;4.90;99.90;;;;;;5129006;27;20023;-71
2022/05/01 03:10:04;;;;;;;12.27;9.85;;;5.00;99.90;;;;;;5113951;27;20047;-70
2022/05/01 03:12:30;;;;;;;16.35;11.65;;;4.70;99.90;;;;;;5122391;27;20054;-71
2022/05/01 03:14:57;;;;;;;15.95;11.43;;;4.90;99.90;;;;;;5105658;28;20067;-72
2022/05/01 03:17:23;;;;;;;12.63;9.82;;;4.80;99.90;;;;;;5094217;27;20058;-71
2022/05/01 03:22:33;;;;;;;15.20;10.85;;;5.40;99.90;;;;;;5120796;27;20039;-71
2022/05/01 03:24:59;;;;;;;12.63;10.45;;;6.00;99.90;;;;;;5088809;27;20022;-72
2022/05/01 03:27:27;;;;;;;14.43;11.95;;;5.20;99.90;;;;;;5118485;28;20031;-71
2022/05/01 03:32:39;;;;;;;14.45;10.93;;;5.40;99.90;;;;;;5108130;28;20043;-70
2022/05/01 03:35:07;;;;;;;14.50;11.35;;;5.40;99.90;;;;;;5126449;27;20309;-70
2022/05/01 03:38:03;;;;;;;15.73;12.52;;;5.40;99.90;;;;;;5091804;28;20098;-70
2022/05/01 03:40:47;;;;;;;14.95;10.68;;;5.60;99.90;;;;;;5053612;28;20037;-70
2022/05/01 03:43:17;;;;;;;15.25;12.57;;;5.60;99.90;;;;;;5118535;27;20314;-70
2022/05/01 03:45:43;;;;;;;17.85;12.15;;;5.70;99.90;;;;;;5121138;27;20040;-70
2022/05/01 03:48:11;;;;;;;17.85;13.00;;;5.70;99.90;;;;;;5104778;28;20039;-71
2022/05/01 03:50:38;;;;;;;15.40;10.75;;;5.90;99.90;;;;;;5120822;27;20272;-70
2022/05/01 03:53:07;;;;;;;15.10;12.23;;;6.20;99.90;;;;;;5118832;27;20106;-70
2022/05/01 03:55:33;;;;;;;17.80;11.98;;;5.90;99.90;;;;;;5109984;28;20027;-71
2022/05/01 03:58:00;;;;;;;37.50;14.13;;;6.00;99.90;;;;;;5120817;28;20035;-70
2022/05/01 04:00:28;;;;;;;27.65;14.60;;;6.10;99.90;;;;;;5104644;28;20043;-69
2022/05/01 04:03:28;;;;;;;18.90;14.50;;;6.10;99.90;;;;;;5104271;28;20041;-70
2022/05/01 04:05:54;;;;;;;16.25;12.43;;;6.10;99.90;;;;;;5116321;28;20023;-71
2022/05/01 04:08:23;;;;;;;15.10;11.82;;;6.00;99.90;;;;;;5087088;28;20031;-70
2022/05/01 04:10:49;;;;;;;13.80;11.25;;;5.90;99.90;;;;;;5109621;28;20210;-70
2022/05/01 04:13:17;;;;;;;15.73;11.73;;;5.40;99.90;;;;;;5119577;27;20083;-70
2022/05/01 04:15:46;;;;;;;160.32;14.45;;;5.00;99.90;;;;;;5106179;27;20031;-71
2022/05/01 04:18:12;;;;;;;201.82;15.23;;;4.90;99.90;;;;;;5141436;27;20062;-71
2022/05/01 04:20:38;;;;;;;98.72;12.20;;;4.90;99.90;;;;;;5097994;28;20310;-70
2022/05/01 04:23:08;;;;;;;59.17;11.65;;;4.70;99.90;;;;;;5119910;27;20221;-71
2022/05/01 04:25:34;;;;;;;12.52;9.05;;;4.80;99.90;;;;;;5120641;27;20073;-70
2022/05/01 04:28:06;;;;;;;13.68;9.60;;;4.90;99.90;;;;;;5120147;27;20337;-70
2022/05/01 04:30:31;;;;;;;10.68;8.77;;;4.90;99.90;;;;;;5131073;27;20133;-70
2022/05/01 04:33:02;;;;;;;12.75;9.63;;;5.10;99.90;;;;;;5120970;27;20027;-71
2022/05/01 04:35:37;;;;;;;13.15;9.65;;;5.30;99.90;;;;;;5130090;27;20072;-71
2022/05/01 04:38:18;;;;;;;14.15;10.75;;;5.20;99.90;;;;;;5129059;27;20259;-70
2022/05/01 04:40:48;;;;;;;12.40;9.30;;;5.50;99.90;;;;;;5129759;27;20055;-71
2022/05/01 04:43:19;;;;;;;12.38;10.23;;;5.40;99.90;;;;;;5104160;27;20050;-70
2022/05/01 04:45:50;;;;;;;10.10;8.75;;;5.30;99.90;;;;;;5124805;27;20027;-71
2022/05/01 04:48:17;;;;;;;13.90;11.32;;;5.60;99.90;;;;;;5112214;27;20103;-72
2022/05/01 04:50:45;;;;;;;14.48;10.32;;;5.50;99.90;;;;;;5101040;27;20069;-70
2022/05/01 04:53:12;;;;;;;13.40;9.80;;;5.50;99.90;;;;;;5108969;27;20191;-72
2022/05/01 04:55:39;;;;;;;14.35;11.02;;;5.50;99.90;;;;;;5123065;27;20031;-69
2022/05/01 04:58:05;;;;;;;15.05;10.80;;;5.80;99.90;;;;;;5099897;27;20082;-69
2022/05/01 05:00:31;;;;;;;13.70;10.95;;;5.80;99.90;;;;;;5110938;27;20230;-70
2022/05/01 05:02:58;;;;;;;11.98;10.13;;;6.00;99.90;;;;;;5108828;27;20082;-71
2022/05/01 05:05:28;;;;;;;14.45;10.90;;;5.90;99.90;;;;;;5131476;27;20280;-71
2022/05/01 05:07:54;;;;;;;29.08;11.20;;;5.90;99.90;;;;;;5131807;27;20039;-72
2022/05/01 05:10:20;;;;;;;88.10;15.15;;;5.60;99.90;;;;;;5102842;27;20304;-69
2022/05/01 05:12:47;;;;;;;34.63;11.75;;;5.50;99.90;;;;;;5106362;27;20165;-70
2022/05/01 05:15:16;;;;;;;81.70;12.98;;;5.40;99.90;;;;;;5121584;27;20055;-70
2022/05/01 05:17:43;;;;;;;225.60;19.08;;;5.40;99.90;;;;;;5120640;27;20023;-70
2022/05/01 05:20:12;;;;;;;262.65;19.35;;;5.60;99.90;;;;;;5110360;27;20071;-69
2022/05/01 05:22:39;;;;;;;287.63;18.92;;;5.80;99.90;;;;;;5123202;27;20305;-70
2022/05/01 05:25:09;;;;;;;227.52;17.15;;;5.70;99.90;;;;;;5123458;27;20063;-69
2022/05/01 05:27:35;;;;;;;202.38;16.60;;;5.80;99.90;;;;;;5124084;27;20031;-70
2022/05/01 05:30:01;;;;;;;153.00;12.77;;;5.90;99.90;;;;;;5128172;27;20127;-71
2022/05/01 05:32:34;;;;;;;207.80;15.57;;;6.00;99.90;;;;;;5113175;28;20035;-70
2022/05/01 05:35:00;;;;;;;274.50;18.98;;;6.10;99.90;;;;;;5113411;27;20364;-71
2022/05/01 05:37:26;;;;;;;223.68;16.27;;;6.10;99.90;;;;;;5109726;28;20038;-71
2022/05/01 05:39:51;;;;;;;117.65;13.73;;;6.60;99.90;;;;;;5117531;27;20322;-71
2022/05/01 05:42:28;;;;;;;87.45;13.07;;;6.50;99.90;;;;;;5127267;27;20034;-69
2022/05/01 05:44:54;;;;;;;20.48;11.20;;;6.80;99.90;;;;;;5107624;28;20314;-69
2022/05/01 05:47:20;;;;;;;13.20;11.80;;;6.70;99.90;;;;;;5106722;27;20076;-70
2022/05/01 05:49:45;;;;;;;15.77;12.18;;;7.00;99.90;;;;;;5140983;27;20031;-70
2022/05/01 05:52:11;;;;;;;16.00;13.80;;;7.20;99.90;;;;;;5127831;27;20035;-70
2022/05/01 05:54:39;;;;;;;20.67;15.32;;;7.20;99.90;;;;;;5134378;27;20110;-70
2022/05/01 05:57:04;;;;;;;21.02;16.15;;;7.50;99.90;;;;;;5093058;27;20406;-70
2022/05/01 05:59:38;;;;;;;20.02;15.05;;;7.60;99.90;;;;;;5109505;27;20039;-71
2022/05/01 06:06:14;;;;;;;;;;;;;;;;;;;;;
2022/05/01 06:12:41;;;;;;;21.70;16.10;;;8.20;99.90;;;;;;4958878;28;20475;-73
2022/05/01 06:15:08;;;;;;;19.73;15.45;;;9.20;99.90;;;;;;5127472;27;20054;-71
2022/05/01 06:17:34;;;;;;;20.98;15.73;;;9.10;99.90;;;;;;5093047;27;20024;-72
2022/05/01 06:19:59;;;;;;;18.33;14.18;;;9.20;99.90;;;;;;5124053;27;20066;-71
2022/05/01 06:22:25;;;;;;;15.75;12.88;;;9.60;99.90;;;;;;5092728;28;20027;-71
2022/05/01 06:24:51;;;;;;;17.17;12.95;;;9.80;99.90;;;;;;5124097;27;20377;-71
2022/05/01 06:27:17;;;;;;;20.90;14.93;;;9.60;99.90;;;;;;5102680;27;20028;-71
2022/05/01 06:29:44;;;;;;;17.85;12.70;;;9.90;99.90;;;;;;5110092;28;20027;-72
2022/05/01 06:32:10;;;;;;;15.65;12.75;;;9.90;99.90;;;;;;5108654;27;20035;-71
2022/05/01 06:34:37;;;;;;;15.73;12.18;;;10.20;99.90;;;;;;5102928;27;20103;-71
2022/05/01 06:37:04;;;;;;;14.85;11.40;;;10.20;99.90;;;;;;5128111;27;20031;-71
2022/05/01 06:39:30;;;;;;;14.30;11.55;;;10.40;99.90;;;;;;5129537;27;20333;-71
2022/05/01 06:41:55;;;;;;;12.35;10.95;;;10.30;99.90;;;;;;5108451;27;20102;-71
2022/05/01 06:44:21;;;;;;;13.98;10.45;;;10.70;99.90;;;;;;5107690;27;20045;-69
2022/05/01 06:46:47;;;;;;;14.15;9.60;;;10.70;99.90;;;;;;5110520;27;20034;-70
2022/05/01 06:49:12;;;;;;;11.10;8.90;;;10.70;99.90;;;;;;5131982;27;20069;-70
2022/05/01 06:51:40;;;;;;;13.30;8.48;;;10.90;99.90;;;;;;5110099;28;20046;-70
2022/05/01 06:54:08;;;;;;;9.65;8.43;;;10.90;99.90;;;;;;5106104;28;20041;-70
2022/05/01 06:56:34;;;;;;;11.02;8.20;;;10.90;99.90;;;;;;5107672;27;20038;-70
2022/05/01 06:59:04;;;;;;;9.02;8.07;;;11.10;99.90;;;;;;5104639;27;20039;-70
2022/05/01 07:01:36;;;;;;;10.63;7.72;;;11.00;99.90;;;;;;5112988;27;20188;-70
2022/05/01 07:04:01;;;;;;;13.02;8.25;;;11.00;99.90;;;;;;5112084;27;20107;-70
2022/05/01 07:06:27;;;;;;;12.13;7.40;;;10.90;99.90;;;;;;5098968;27;20047;-71
2022/05/01 07:08:53;;;;;;;11.00;7.88;;;11.00;99.90;;;;;;5128687;27;20031;-69
2022/05/01 07:11:18;;;;;;;9.27;6.93;;;11.00;99.90;;;;;;5107150;27;20036;-69
2022/05/01 07:13:44;;;;;;;8.55;5.85;;;10.80;99.90;;;;;;5105490;27;20052;-70
2022/05/01 07:16:10;;;;;;;7.88;5.63;;;10.80;99.90;;;;;;5099349;27;20047;-69
2022/05/01 07:18:36;;;;;;;6.88;5.18;;;10.70;99.90;;;;;;5126738;27;20302;-68
2022/05/01 07:21:02;;;;;;;5.45;3.97;;;10.70;99.90;;;;;;5091187;27;20302;-70
2022/05/01 07:23:28;;;;;;;7.28;4.60;;;10.50;99.90;;;;;;5122573;27;20023;-71
2022/05/01 07:25:54;;;;;;;8.68;6.10;;;10.60;99.90;;;;;;5104721;27;20048;-70
2022/05/01 07:28:19;;;;;;;7.55;4.75;;;10.70;99.90;;;;;;5114577;27;20023;-71
2022/05/01 07:30:45;;;;;;;5.53;4.80;;;10.80;99.90;;;;;;5123840;27;20255;-70
2022/05/01 07:33:11;;;;;;;7.68;5.22;;;10.70;99.90;;;;;;5090695;28;20349;-69
2022/05/01 07:35:37;;;;;;;7.18;5.30;;;10.50;99.90;;;;;;5126020;27;20085;-69
2022/05/01 07:38:03;;;;;;;7.63;5.50;;;10.60;99.90;;;;;;5098616;28;20084;-69
2022/05/01 07:40:29;;;;;;;9.52;4.38;;;10.80;99.90;;;;;;5119902;27;20027;-68
2022/05/01 07:42:55;;;;;;;6.10;4.55;;;10.80;99.90;;;;;;5120805;27;20086;-68
2022/05/01 07:45:21;;;;;;;6.07;4.78;;;10.70;99.90;;;;;;5117170;27;20423;-69
2022/05/01 07:47:46;;;;;;;7.78;4.68;;;10.80;99.90;;;;;;5104749;27;20023;-70
2022/05/01 07:50:13;;;;;;;7.82;5.68;;;11.00;99.90;;;;;;5119523;28;20070;-69
2022/05/01 07:52:39;;;;;;;6.35;5.07;;;11.00;99.90;;;;;;5130251;27;20035;-70
2022/05/01 07:55:06;;;;;;;6.10;5.47;;;11.20;99.90;;;;;;5107787;27;20160;-70
2022/05/01 07:57:32;;;;;;;6.80;4.95;;;11.00;99.90;;;;;;5099335;27;20248;-70
2022/05/01 07:59:57;;;;;;;4.13;3.72;;;11.20;99.90;;;;;;5110348;27;20035;-70
2022/05/01 08:02:23;;;;;;;4.63;3.90;;;10.80;99.90;;;;;;5108731;27;20031;-72
2022/05/01 08:04:49;;;;;;;6.07;4.60;;;10.60;99.90;;;;;;5099383;28;20046;-69
2022/05/01 08:07:15;;;;;;;6.47;4.45;;;10.60;99.90;;;;;;5116936;27;20638;-70
2022/05/01 08:09:41;;;;;;;5.05;3.88;;;10.40;99.90;;;;;;5101622;28;20043;-71
2022/05/01 08:12:07;;;;;;;4.43;4.00;;;10.10;99.90;;;;;;5118751;27;20039;-70
2022/05/01 08:14:32;;;;;;;4.82;4.32;;;10.20;99.90;;;;;;5128362;27;20051;-68
2022/05/01 08:16:58;;;;;;;5.40;4.18;;;10.20;99.90;;;;;;5122088;27;20070;-70
2022/05/01 08:22:26;;;;;;;5.43;4.77;;;10.60;99.90;;;;;;5137525;27;20229;-69
2022/05/01 08:24:54;;;;;;;5.65;4.35;;;11.20;99.90;;;;;;5106496;27;20699;-68
2022/05/01 08:27:19;;;;;;;4.70;4.18;;;11.10;99.90;;;;;;5120329;27;20062;-69
2022/05/01 08:29:45;;;;;;;4.85;4.00;;;11.40;99.90;;;;;;5090696;27;20052;-70
2022/05/01 08:32:11;;;;;;;5.72;4.35;;;11.40;99.90;;;;;;5106412;27;20241;-70
2022/05/01 08:34:36;;;;;;;5.50;4.22;;;11.50;99.90;;;;;;5111920;27;20065;-70
2022/05/01 08:37:02;;;;;;;6.35;4.63;;;11.80;99.90;;;;;;5097424;27;20039;-69
2022/05/01 08:39:28;;;;;;;7.82;4.32;;;12.30;99.90;;;;;;5122954;27;20049;-69
2022/05/01 08:41:54;;;;;;;5.45;3.90;;;12.40;99.90;;;;;;5104165;27;20035;-69
2022/05/01 08:44:31;;;;;;;5.60;3.90;;;12.20;99.90;;;;;;5102055;27;20214;-67
2022/05/01 08:47:17;;;;;;;5.68;4.32;;;12.00;99.90;;;;;;5108970;27;20106;-70
2022/05/01 08:49:44;;;;;;;5.05;3.85;;;11.80;99.90;;;;;;5120051;27;20026;-69
2022/05/01 08:52:10;;;;;;;6.38;4.05;;;11.70;99.90;;;;;;5102734;28;20233;-70
2022/05/01 08:54:37;;;;;;;4.60;3.40;;;12.00;99.90;;;;;;5093695;27;20050;-68
2022/05/01 08:57:06;;;;;;;4.10;3.70;;;12.00;99.90;;;;;;5116002;27;20198;-69
2022/05/01 08:59:32;;;;;;;3.65;3.03;;;12.10;99.90;;;;;;5119616;27;20124;-70
2022/05/01 09:01:58;;;;;;;4.50;3.42;;;12.10;99.90;;;;;;5127726;27;20047;-70
2022/05/01 09:04:25;;;;;;;3.70;3.38;;;12.30;99.90;;;;;;5102687;27;20053;-70
2022/05/01 09:06:51;;;;;;;5.93;3.80;;;12.30;99.90;;;;;;5127238;27;20352;-69
2022/05/01 09:09:21;;;;;;;4.80;3.38;;;12.60;99.90;;;;;;5111264;28;20045;-69
2022/05/01 09:14:35;;;;;;;5.90;4.30;;;13.10;99.90;;;;;;5109011;27;20047;-70
2022/05/01 09:17:23;;;;;;;4.10;3.65;;;13.60;99.90;;;;;;5123506;27;20043;-70
2022/05/01 09:20:03;;;;;;;4.00;3.60;;;13.70;99.90;;;;;;5115002;27;20046;-70
2022/05/01 09:22:50;;;;;;;5.07;3.28;;;13.30;99.90;;;;;;5111464;27;20233;-69
2022/05/01 09:25:18;;;;;;;3.60;3.20;;;13.80;99.90;;;;;;5106780;27;20042;-69
2022/05/01 09:27:44;;;;;;;5.40;2.90;;;14.20;99.90;;;;;;5106817;27;20035;-69
2022/05/01 09:30:19;;;;;;;3.58;2.80;;;14.00;99.90;;;;;;5115139;27;20035;-72
2022/05/01 09:32:45;;;;;;;4.47;3.33;;;14.10;99.90;;;;;;5113486;27;20039;-69
2022/05/01 09:35:39;;;;;;;3.40;3.10;;;14.40;99.90;;;;;;5113753;27;20071;-68
2022/05/01 09:38:22;;;;;;;5.72;3.20;;;14.30;99.90;;;;;;5106745;27;20791;-70
2022/05/01 09:40:57;;;;;;;5.50;3.08;;;13.90;99.90;;;;;;5106239;27;20342;-68
2022/05/01 09:43:43;;;;;;;4.53;3.60;;;14.30;99.90;;;;;;5130246;27;20031;-71
2022/05/01 09:46:22;;;;;;;4.68;3.47;;;14.40;99.90;;;;;;5120187;27;20315;-70
2022/05/01 09:48:57;;;;;;;4.63;3.45;;;14.90;99.90;;;;;;5122177;27;20038;-69
2022/05/01 09:51:23;;;;;;;4.00;3.15;;;14.70;99.90;;;;;;5123286;27;20046;-70
2022/05/01 09:53:49;;;;;;;5.65;3.13;;;14.60;99.90;;;;;;5122966;27;20110;-69
2022/05/01 09:56:18;;;;;;;4.90;3.78;;;14.50;99.90;;;;;;5106000;27;20035;-69
2022/05/01 09:58:44;;;;;;;4.68;3.60;;;14.80;99.90;;;;;;5130347;27;20061;-69
2022/05/01 10:01:13;;;;;;;3.85;3.45;;;15.30;99.90;;;;;;5103660;27;20355;-68
2022/05/01 10:03:46;;;;;;;3.83;3.28;;;15.50;99.90;;;;;;5127091;27;20336;-70
2022/05/01 10:06:13;;;;;;;5.65;3.38;;;15.50;99.90;;;;;;5121885;27;20043;-69
2022/05/01 10:08:44;;;;;;;3.72;3.35;;;15.80;99.90;;;;;;5117952;27;20198;-69
2022/05/01 10:11:16;;;;;;;5.20;3.22;;;16.00;99.90;;;;;;5121664;27;20058;-70
2022/05/01 10:14:00;;;;;;;4.35;3.20;;;15.70;99.90;;;;;;5125255;27;20081;-70
2022/05/01 10:16:49;;;;;;;3.60;3.17;;;15.50;99.90;;;;;;5083975;27;20113;-70
2022/05/01 10:19:34;;;;;;;5.82;3.42;;;15.70;99.90;;;;;;5105169;27;20070;-69
2022/05/01 10:22:00;;;;;;;5.05;3.55;;;15.60;99.90;;;;;;5122344;27;20034;-68
2022/05/01 10:24:28;;;;;;;3.50;3.10;;;15.50;99.90;;;;;;5121568;27;20102;-69
2022/05/01 10:27:36;;;;;;;3.63;3.25;;;15.70;99.90;;;;;;5105924;27;20304;-68
2022/05/01 10:33:44;;;;;;;5.50;3.70;;;15.40;99.90;;;;;;5124624;27;20078;-71
2022/05/01 10:36:22;;;;;;;;;;;15.50;99.90;;;;;;5105993;27;20105;-69
2022/05/01 10:39:01;;;;;;;4.85;3.42;;;15.30;99.90;;;;;;5135148;27;19925;-69
2022/05/01 10:41:28;;;;;;;3.33;3.03;;;15.10;99.90;;;;;;5123070;27;20325;-71
2022/05/01 10:43:56;;;;;;;7.18;2.97;;;15.10;99.90;;;;;;5112449;27;20027;-70
2022/05/01 10:46:22;;;;;;;5.53;3.45;;;14.40;99.90;;;;;;5118342;27;20241;-71
2022/05/01 10:48:48;;;;;;;3.85;3.10;;;15.00;99.90;;;;;;5112955;27;20076;-70
2022/05/01 10:51:36;;;;;;;5.07;3.35;;;15.10;99.90;;;;;;5104133;27;20051;-68
2022/05/01 10:54:17;;;;;;;4.25;3.25;;;15.00;99.90;;;;;;5110563;27;20240;-70
2022/05/01 10:57:04;;;;;;;3.70;3.30;;;15.80;99.90;;;;;;5121730;27;20102;-70
2022/05/01 10:59:35;;;;;;;4.28;3.42;;;16.00;99.90;;;;;;5130296;27;20237;-69
2022/05/01 11:02:05;;;;;;;4.78;3.30;;;15.70;99.90;;;;;;5109987;27;20030;-69
2022/05/01 11:04:42;;;;;;;4.80;2.85;;;15.60;99.90;;;;;;5103107;27;20073;-69
2022/05/01 11:07:13;;;;;;;3.78;3.03;;;15.70;99.90;;;;;;5121868;27;20280;-70
2022/05/01 11:09:42;;;;;;;4.53;2.88;;;15.70;99.90;;;;;;5111684;27;20039;-69
2022/05/01 11:12:10;;;;;;;3.85;2.70;;;15.70;99.90;;;;;;5128900;27;20039;-68
2022/05/01 11:14:49;;;;;;;6.18;2.80;;;15.60;99.90;;;;;;5110876;27;20047;-68
2022/05/01 11:17:26;;;;;;;4.10;3.40;;;15.80;99.90;;;;;;5119799;27;20049;-69
2022/05/01 11:19:52;;;;;;;4.00;3.30;;;15.30;99.90;;;;;;5129426;27;20346;-70
2022/05/01 11:22:27;;;;;;;4.60;3.70;;;14.90;99.90;;;;;;5126127;27;20042;-71
2022/05/01 11:25:03;;;;;;;4.25;3.65;;;14.70;99.90;;;;;;5130343;27;20091;-68
2022/05/01 11:27:49;;;;;;;4.60;3.78;;;14.30;99.90;;;;;;5104729;27;20039;-71
2022/05/01 11:30:27;;;;;;;4.50;3.80;;;14.20;99.90;;;;;;5089274;27;20082;-70
2022/05/01 11:33:10;;;;;;;4.75;3.30;;;14.30;99.90;;;;;;5152896;27;20103;-71
2022/05/01 11:35:55;;;;;;;4.53;3.60;;;14.00;99.90;;;;;;5127618;27;20050;-69
2022/05/01 11:38:53;;;;;;;4.47;3.05;;;14.00;99.90;;;;;;5130399;27;20114;-69
2022/05/01 11:41:40;;;;;;;5.63;4.25;;;13.50;99.90;;;;;;5084905;27;20051;-68
2022/05/01 11:44:23;;;;;;;4.80;4.00;;;13.60;99.90;;;;;;5120465;27;20676;-70
2022/05/01 11:47:10;;;;;;;;;;;;;;;;;;;;;
2022/05/01 11:49:42;;;;;;;4.38;3.42;;;13.60;99.90;;;;;;5140358;27;20254;-69
2022/05/01 11:52:16;;;;;;;3.60;3.30;;;13.80;99.90;;;;;;5125732;27;20292;-70
2022/05/01 11:54:56;;;;;;;4.78;3.78;;;13.80;99.90;;;;;;5123764;27;20034;-69
2022/05/01 12:03:27;;;;;;;4.35;3.33;;;14.30;99.90;;;;;;5137008;27;20325;-70
2022/05/01 12:05:53;;;;;;;3.50;3.05;;;14.50;99.90;;;;;;5134492;27;20111;-70
2022/05/01 12:08:23;;;;;;;3.83;3.40;;;15.00;99.90;;;;;;5157801;27;20098;-70
2022/05/01 12:10:49;;;;;;;3.35;2.95;;;14.00;99.90;;;;;;5145393;27;20030;-68
2022/05/01 12:13:19;;;;;;;3.58;3.28;;;14.40;99.90;;;;;;5119402;27;20050;-70
2022/05/01 12:15:45;;;;;;;4.25;2.90;;;14.30;99.90;;;;;;5124741;27;20258;-71
2022/05/01 12:18:11;;;;;;;4.82;3.13;;;14.20;99.90;;;;;;5130786;27;20056;-70
2022/05/01 12:20:37;;;;;;;4.72;3.05;;;14.40;99.90;;;;;;5127790;27;20038;-69
2022/05/01 12:23:05;;;;;;;3.47;3.17;;;14.30;99.90;;;;;;5144644;27;20332;-68
2022/05/01 12:25:31;;;;;;;4.38;3.63;;;14.30;99.90;;;;;;5111768;27;20049;-69
2022/05/01 12:27:57;;;;;;;4.80;3.50;;;14.20;99.90;;;;;;5136000;27;20034;-69
2022/05/01 12:30:27;;;;;;;4.07;3.60;;;14.00;99.90;;;;;;5120138;27;20092;-69
2022/05/01 12:32:54;;;;;;;3.83;3.30;;;14.20;99.90;;;;;;5117580;27;20362;-69
2022/05/01 12:35:22;;;;;;;4.13;3.33;;;14.20;99.90;;;;;;5131882;27;20047;-70
2022/05/01 12:37:49;;;;;;;5.25;3.38;;;14.20;99.90;;;;;;5130960;27;20360;-70
2022/05/01 12:43:50;;;;;;;3.45;3.15;;;14.10;99.90;;;;;;5151012;27;20038;-69
2022/05/01 12:46:40;;;;;;;4.72;3.20;;;14.80;99.90;;;;;;5113922;27;20039;-70
2022/05/01 12:49:08;;;;;;;4.95;3.20;;;15.30;99.90;;;;;;5128668;27;20121;-70
2022/05/01 12:51:41;;;;;;;4.70;3.45;;;15.50;99.90;;;;;;5128994;27;20026;-69
2022/05/01 12:54:08;;;;;;;3.55;3.15;;;14.90;99.90;;;;;;5143526;27;20034;-69
2022/05/01 12:56:35;;;;;;;3.15;2.85;;;15.50;99.90;;;;;;5129030;27;21071;-69
2022/05/01 12:59:20;;;;;;;4.38;3.35;;;15.40;99.90;;;;;;5133999;27;20552;-69
2022/05/01 13:01:46;;;;;;;3.67;3.30;;;15.50;99.90;;;;;;5145051;27;20038;-70
2022/05/01 13:04:34;;;;;;;3.80;3.22;;;15.00;99.90;;;;;;5125435;27;20038;-70
2022/05/01 13:07:58;;;;;;;;;;;;;;;;;;;;;
2022/05/01 13:10:23;;;;;;;3.38;2.95;;;15.30;99.90;;;;;;5134430;27;20026;-69
2022/05/01 13:12:57;;;;;;;3.42;2.85;;;15.40;99.90;;;;;;5112357;27;20248;-69
2022/05/01 13:15:37;;;;;;;5.85;3.40;;;14.80;99.90;;;;;;5146523;27;20226;-70
2022/05/01 13:18:03;;;;;;;4.32;3.50;;;15.00;99.90;;;;;;5147609;27;20034;-68
2022/05/01 13:20:30;;;;;;;4.03;3.47;;;14.80;99.90;;;;;;5133048;27;20035;-71
2022/05/01 13:22:55;;;;;;;4.13;3.13;;;14.90;99.90;;;;;;5143276;27;20066;-71
2022/05/01 13:25:21;;;;;;;3.78;3.00;;;14.90;99.90;;;;;;5111311;27;20130;-69
2022/05/01 13:27:47;;;;;;;3.45;3.15;;;15.00;99.90;;;;;;5137661;27;20026;-69
2022/05/01 13:30:13;;;;;;;4.75;3.28;;;14.90;99.90;;;;;;5122588;27;20404;-70
2022/05/01 13:32:39;;;;;;;3.50;2.80;;;14.70;99.90;;;;;;5138846;27;20041;-68
2022/05/01 13:35:05;;;;;;;3.42;3.00;;;15.00;99.90;;;;;;5129246;27;20032;-70
2022/05/01 13:37:33;;;;;;;4.28;3.17;;;14.30;99.90;;;;;;5133916;27;20035;-70
2022/05/01 13:45:27;;;;;;;3.38;3.00;;;14.80;99.90;;;;;;5137890;27;20043;-70
2022/05/01 13:47:53;;;;;;;3.88;3.45;;;15.50;99.90;;;;;;5110132;27;20026;-69